sensor_id;sensor_type;location;lat;lon;timestamp;temperature;humidity
6662;DHT22;3367;48.714;8.994;2023-04-28T00:01:10;10.40;25.40
6662;DHT22;3367;48.714;8.994;2023-04-28T00:03:36;10.50;16.90
6662;DHT22;3367;48.714;8.994;2023-04-28T00:06:03;10.50;10.60
6662;DHT22;3367;48.714;8.994;2023-04-28T00:08:31;10.50;28.20
6662;DHT22;3367;48.714;8.994;2023-04-28T00:10:59;10.60;47.90
6662;DHT22;3367;48.714;8.994;2023-04-28T00:13:26;10.60;64.50
6662;DHT22;3367;48.714;8.994;2023-04-28T00:15:53;10.60;99.90
6662;DHT22;3367;48.714;8.994;2023-04-28T00:18:20;10.60;99.90
6662;DHT22;3367;48.714;8.994;2023-04-28T00:20:48;10.50;99.90
6662;DHT22;3367;48.714;8.994;2023-04-28T00:23:14;10.50;99.90
6662;DHT22;3367;48.714;8.994;2023-04-28T00:25:42;10.50;99.90
6662;DHT22;3367;48.714;8.994;2023-04-28T00:28:09;10.50;99.90
6662;DHT22;3367;48.714;8.994;2023-04-28T00:30:36;10.40;99.90
6662;DHT22;3367;48.714;8.994;2023-04-28T00:33:02;10.40;99.90
6662;DHT22;3367;48.714;8.994;2023-04-28T00:35:29;10.40;99.90
6662;DHT22;3367;48.714;8.994;2023-04-28T00:37:56;10.40;99.90
6662;DHT22;3367;48.714;8.994;2023-04-28T00:40:23;10.40;99.90
6662;DHT22;3367;48.714;8.994;2023-04-28T00:42:51;10.40;99.90
6662;DHT22;3367;48.714;8.994;2023-04-28T00:45:17;10.50;99.90
6662;DHT22;3367;48.714;8.994;2023-04-28T00:47:44;10.50;99.90
6662;DHT22;3367;48.714;8.994;2023-04-28T00:50:11;10.50;99.90
6662;DHT22;3367;48.714;8.994;2023-04-28T00:52:38;10.50;99.90
6662;DHT22;3367;48.714;8.994;2023-04-28T00:55:06;10.50;99.90
6662;DHT22;3367;48.714;8.994;2023-04-28T00:57:33;10.50;99.90
6662;DHT22;3367;48.714;8.994;2023-04-28T01:00:02;10.60;99.90
6662;DHT22;3367;48.714;8.994;2023-04-28T01:02:30;10.60;99.90
6662;DHT22;3367;48.714;8.994;2023-04-28T01:04:57;10.60;99.90
6662;DHT22;3367;48.714;8.994;2023-04-28T01:07:24;10.60;99.90
6662;DHT22;3367;48.714;8.994;2023-04-28T01:09:51;10.60;99.90
6662;DHT22;3367;48.714;8.994;2023-04-28T01:12:18;10.60;99.90
6662;DHT22;3367;48.714;8.994;2023-04-28T01:14:45;10.60;99.90
6662;DHT22;3367;48.714;8.994;2023-04-28T01:17:13;10.60;99.90
6662;DHT22;3367;48.714;8.994;2023-04-28T01:19:40;10.60;99.90
6662;DHT22;3367;48.714;8.994;2023-04-28T01:22:07;10.60;99.90
6662;DHT22;3367;48.714;8.994;2023-04-28T01:24:36;10.60;99.90
6662;DHT22;3367;48.714;8.994;2023-04-28T01:27:03;10.60;99.90
6662;DHT22;3367;48.714;8.994;2023-04-28T01:29:30;10.70;99.90
6662;DHT22;3367;48.714;8.994;2023-04-28T01:31:57;10.70;99.90
6662;DHT22;3367;48.714;8.994;2023-04-28T01:34:23;10.70;99.90
6662;DHT22;3367;48.714;8.994;2023-04-28T01:36:50;10.70;99.90
6662;DHT22;3367;48.714;8.994;2023-04-28T01:39:17;10.70;99.90
6662;DHT22;3367;48.714;8.994;2023-04-28T01:41:46;10.70;99.90
6662;DHT22;3367;48.714;8.994;2023-04-28T01:44:12;10.80;99.90
6662;DHT22;3367;48.714;8.994;2023-04-28T01:46:39;10.80;99.90
6662;DHT22;3367;48.714;8.994;2023-04-28T01:49:05;10.80;99.90
6662;DHT22;3367;48.714;8.994;2023-04-28T01:51:32;10.70;99.90
6662;DHT22;3367;48.714;8.994;2023-04-28T01:53:59;10.70;99.90
6662;DHT22;3367;48.714;8.994;2023-04-28T01:56:26;10.70;99.90
6662;DHT22;3367;48.714;8.994;2023-04-28T01:58:54;10.70;99.90
6662;DHT22;3367;48.714;8.994;2023-04-28T02:01:20;10.70;99.90
6662;DHT22;3367;48.714;8.994;2023-04-28T02:03:47;10.70;99.90
6662;DHT22;3367;48.714;8.994;2023-04-28T02:06:14;10.70;99.90
6662;DHT22;3367;48.714;8.994;2023-04-28T02:08:41;10.70;99.90
6662;DHT22;3367;48.714;8.994;2023-04-28T02:11:08;10.70;99.90
6662;DHT22;3367;48.714;8.994;2023-04-28T02:13:34;10.70;99.90
6662;DHT22;3367;48.714;8.994;2023-04-28T02:16:03;10.80;99.90
6662;DHT22;3367;48.714;8.994;2023-04-28T02:18:29;10.80;99.90
6662;DHT22;3367;48.714;8.994;2023-04-28T02:20:56;10.80;99.90
6662;DHT22;3367;48.714;8.994;2023-04-28T02:23:23;10.80;99.90
6662;DHT22;3367;48.714;8.994;2023-04-28T02:25:49;10.80;99.90
6662;DHT22;3367;48.714;8.994;2023-04-28T02:28:25;10.80;99.90
6662;DHT22;3367;48.714;8.994;2023-04-28T02:30:52;10.80;99.90
6662;DHT22;3367;48.714;8.994;2023-04-28T02:33:20;10.80;99.90
6662;DHT22;3367;48.714;8.994;2023-04-28T02:35:47;10.80;99.90
6662;DHT22;3367;48.714;8.994;2023-04-28T02:38:23;10.80;99.90
6662;DHT22;3367;48.714;8.994;2023-04-28T02:40:56;10.70;99.90
6662;DHT22;3367;48.714;8.994;2023-04-28T02:43:23;10.80;99.90
6662;DHT22;3367;48.714;8.994;2023-04-28T02:45:50;10.80;99.90
6662;DHT22;3367;48.714;8.994;2023-04-28T02:48:17;10.90;99.90
6662;DHT22;3367;48.714;8.994;2023-04-28T02:50:45;10.90;99.90
6662;DHT22;3367;48.714;8.994;2023-04-28T02:53:12;10.90;99.90
6662;DHT22;3367;48.714;8.994;2023-04-28T02:55:38;10.80;99.90
6662;DHT22;3367;48.714;8.994;2023-04-28T02:58:05;10.80;99.90
6662;DHT22;3367;48.714;8.994;2023-04-28T03:00:32;10.80;99.90
6662;DHT22;3367;48.714;8.994;2023-04-28T03:02:58;10.80;99.90
6662;DHT22;3367;48.714;8.994;2023-04-28T03:05:26;10.80;99.90
6662;DHT22;3367;48.714;8.994;2023-04-28T03:07:54;10.80;99.90
6662;DHT22;3367;48.714;8.994;2023-04-28T03:10:21;10.80;99.90
6662;DHT22;3367;48.714;8.994;2023-04-28T03:12:47;10.80;99.90
6662;DHT22;3367;48.714;8.994;2023-04-28T03:15:14;10.80;99.90
6662;DHT22;3367;48.714;8.994;2023-04-28T03:17:41;10.80;99.90
6662;DHT22;3367;48.714;8.994;2023-04-28T03:20:09;10.90;99.90
6662;DHT22;3367;48.714;8.994;2023-04-28T03:22:36;10.90;99.90
6662;DHT22;3367;48.714;8.994;2023-04-28T03:25:04;10.80;99.90
6662;DHT22;3367;48.714;8.994;2023-04-28T03:27:31;10.90;99.90
6662;DHT22;3367;48.714;8.994;2023-04-28T03:29:58;10.90;99.90
6662;DHT22;3367;48.714;8.994;2023-04-28T03:32:25;10.90;99.90
6662;DHT22;3367;48.714;8.994;2023-04-28T03:34:52;10.90;99.90
6662;DHT22;3367;48.714;8.994;2023-04-28T03:37:18;10.90;99.90
6662;DHT22;3367;48.714;8.994;2023-04-28T03:39:45;10.90;99.90
6662;DHT22;3367;48.714;8.994;2023-04-28T03:42:13;10.90;99.90
6662;DHT22;3367;48.714;8.994;2023-04-28T03:44:39;11.00;99.90
6662;DHT22;3367;48.714;8.994;2023-04-28T03:47:06;11.00;99.90
6662;DHT22;3367;48.714;8.994;2023-04-28T03:49:33;11.00;99.90
6662;DHT22;3367;48.714;8.994;2023-04-28T03:52:00;11.20;99.90
6662;DHT22;3367;48.714;8.994;2023-04-28T03:54:28;11.10;99.90
6662;DHT22;3367;48.714;8.994;2023-04-28T03:56:55;11.10;99.90
6662;DHT22;3367;48.714;8.994;2023-04-28T03:59:23;11.10;99.90
6662;DHT22;3367;48.714;8.994;2023-04-28T04:01:50;11.10;99.90
6662;DHT22;3367;48.714;8.994;2023-04-28T04:04:17;11.10;99.90
6662;DHT22;3367;48.714;8.994;2023-04-28T04:06:43;11.30;99.90
6662;DHT22;3367;48.714;8.994;2023-04-28T04:09:10;11.30;99.90
6662;DHT22;3367;48.714;8.994;2023-04-28T04:11:37;11.40;99.90
6662;DHT22;3367;48.714;8.994;2023-04-28T04:14:03;11.40;99.90
6662;DHT22;3367;48.714;8.994;2023-04-28T04:16:32;11.40;99.90
6662;DHT22;3367;48.714;8.994;2023-04-28T04:18:58;11.50;99.90
6662;DHT22;3367;48.714;8.994;2023-04-28T04:21:25;11.60;99.90
6662;DHT22;3367;48.714;8.994;2023-04-28T04:23:52;11.60;99.90
6662;DHT22;3367;48.714;8.994;2023-04-28T04:26:19;11.60;99.90
6662;DHT22;3367;48.714;8.994;2023-04-28T04:28:46;11.60;99.90
6662;DHT22;3367;48.714;8.994;2023-04-28T04:31:13;11.70;99.90
6662;DHT22;3367;48.714;8.994;2023-04-28T04:33:41;11.70;99.90
6662;DHT22;3367;48.714;8.994;2023-04-28T04:36:08;11.70;99.90
6662;DHT22;3367;48.714;8.994;2023-04-28T04:38:35;11.70;99.90
6662;DHT22;3367;48.714;8.994;2023-04-28T04:41:01;11.70;99.90
6662;DHT22;3367;48.714;8.994;2023-04-28T04:43:28;11.70;99.90
6662;DHT22;3367;48.714;8.994;2023-04-28T04:45:55;11.70;99.90
6662;DHT22;3367;48.714;8.994;2023-04-28T04:48:22;11.80;99.90
6662;DHT22;3367;48.714;8.994;2023-04-28T04:50:50;11.80;99.90
6662;DHT22;3367;48.714;8.994;2023-04-28T04:53:17;11.80;99.90
6662;DHT22;3367;48.714;8.994;2023-04-28T04:55:44;11.80;99.90
6662;DHT22;3367;48.714;8.994;2023-04-28T04:58:11;11.80;99.90
6662;DHT22;3367;48.714;8.994;2023-04-28T05:00:37;11.80;1.00
6662;DHT22;3367;48.714;8.994;2023-04-28T05:03:04;11.70;1.00
6662;DHT22;3367;48.714;8.994;2023-04-28T05:05:31;11.70;1.00
6662;DHT22;3367;48.714;8.994;2023-04-28T05:08:00;11.70;1.00
6662;DHT22;3367;48.714;8.994;2023-04-28T05:10:28;11.70;1.00
6662;DHT22;3367;48.714;8.994;2023-04-28T05:12:54;11.60;1.40
6662;DHT22;3367;48.714;8.994;2023-04-28T05:15:21;11.50;84.30
6662;DHT22;3367;48.714;8.994;2023-04-28T05:17:48;11.50;99.90
6662;DHT22;3367;48.714;8.994;2023-04-28T05:20:15;11.50;99.90
6662;DHT22;3367;48.714;8.994;2023-04-28T05:22:42;11.50;99.90
6662;DHT22;3367;48.714;8.994;2023-04-28T05:25:10;11.50;99.90
6662;DHT22;3367;48.714;8.994;2023-04-28T05:27:37;11.50;1.00
6662;DHT22;3367;48.714;8.994;2023-04-28T05:30:06;11.50;1.00
6662;DHT22;3367;48.714;8.994;2023-04-28T05:32:33;11.60;1.00
6662;DHT22;3367;48.714;8.994;2023-04-28T05:35:01;11.60;1.00
6662;DHT22;3367;48.714;8.994;2023-04-28T05:37:28;11.60;1.00
6662;DHT22;3367;48.714;8.994;2023-04-28T05:39:55;11.70;1.00
6662;DHT22;3367;48.714;8.994;2023-04-28T05:42:23;11.70;1.00
6662;DHT22;3367;48.714;8.994;2023-04-28T05:44:50;11.70;1.00
6662;DHT22;3367;48.714;8.994;2023-04-28T05:47:17;11.70;1.00
6662;DHT22;3367;48.714;8.994;2023-04-28T05:49:44;11.70;33.30
6662;DHT22;3367;48.714;8.994;2023-04-28T05:52:10;11.70;99.90
6662;DHT22;3367;48.714;8.994;2023-04-28T05:54:37;11.70;97.60
6662;DHT22;3367;48.714;8.994;2023-04-28T05:57:04;11.70;93.20
6662;DHT22;3367;48.714;8.994;2023-04-28T05:59:32;11.70;37.50
6662;DHT22;3367;48.714;8.994;2023-04-28T06:01:59;11.70;66.30
6662;DHT22;3367;48.714;8.994;2023-04-28T06:04:26;11.70;90.40
6662;DHT22;3367;48.714;8.994;2023-04-28T06:06:53;11.70;99.90
6662;DHT22;3367;48.714;8.994;2023-04-28T06:09:19;11.80;99.90
6662;DHT22;3367;48.714;8.994;2023-04-28T06:11:46;11.80;99.90
6662;DHT22;3367;48.714;8.994;2023-04-28T06:14:13;11.70;1.00
6662;DHT22;3367;48.714;8.994;2023-04-28T06:16:41;11.80;1.00
6662;DHT22;3367;48.714;8.994;2023-04-28T06:19:08;11.80;1.00
6662;DHT22;3367;48.714;8.994;2023-04-28T06:21:35;11.90;1.00
6662;DHT22;3367;48.714;8.994;2023-04-28T06:24:02;11.90;1.00
6662;DHT22;3367;48.714;8.994;2023-04-28T06:26:29;11.90;1.00
6662;DHT22;3367;48.714;8.994;2023-04-28T06:28:56;11.90;1.00
6662;DHT22;3367;48.714;8.994;2023-04-28T06:31:23;12.00;1.00
6662;DHT22;3367;48.714;8.994;2023-04-28T06:33:51;12.00;1.00
6662;DHT22;3367;48.714;8.994;2023-04-28T06:36:18;12.10;1.00
6662;DHT22;3367;48.714;8.994;2023-04-28T06:38:44;12.10;1.00
6662;DHT22;3367;48.714;8.994;2023-04-28T06:41:11;12.10;1.00
6662;DHT22;3367;48.714;8.994;2023-04-28T06:43:38;12.20;1.00
6662;DHT22;3367;48.714;8.994;2023-04-28T06:46:05;12.20;1.00
6662;DHT22;3367;48.714;8.994;2023-04-28T06:48:32;12.20;1.00
6662;DHT22;3367;48.714;8.994;2023-04-28T06:51:01;12.20;1.00
6662;DHT22;3367;48.714;8.994;2023-04-28T06:53:28;12.20;1.00
6662;DHT22;3367;48.714;8.994;2023-04-28T06:55:54;12.30;1.00
6662;DHT22;3367;48.714;8.994;2023-04-28T06:58:21;12.30;1.00
6662;DHT22;3367;48.714;8.994;2023-04-28T07:00:48;12.30;1.00
6662;DHT22;3367;48.714;8.994;2023-04-28T07:03:15;12.40;1.00
6662;DHT22;3367;48.714;8.994;2023-04-28T07:05:42;12.50;1.00
6662;DHT22;3367;48.714;8.994;2023-04-28T07:08:10;12.50;1.00
6662;DHT22;3367;48.714;8.994;2023-04-28T07:10:37;12.50;1.00
6662;DHT22;3367;48.714;8.994;2023-04-28T07:13:04;12.50;1.00
6662;DHT22;3367;48.714;8.994;2023-04-28T07:15:31;12.50;1.00
6662;DHT22;3367;48.714;8.994;2023-04-28T07:17:57;12.50;1.00
6662;DHT22;3367;48.714;8.994;2023-04-28T07:20:24;12.50;1.00
6662;DHT22;3367;48.714;8.994;2023-04-28T07:22:51;12.60;1.00
6662;DHT22;3367;48.714;8.994;2023-04-28T07:25:19;12.60;99.90
6662;DHT22;3367;48.714;8.994;2023-04-28T07:27:46;12.60;99.90
6662;DHT22;3367;48.714;8.994;2023-04-28T07:30:13;12.60;1.00
6662;DHT22;3367;48.714;8.994;2023-04-28T07:32:40;12.60;1.00
6662;DHT22;3367;48.714;8.994;2023-04-28T07:35:08;12.70;1.00
6662;DHT22;3367;48.714;8.994;2023-04-28T07:37:36;12.70;1.00
6662;DHT22;3367;48.714;8.994;2023-04-28T07:40:03;12.70;1.00
6662;DHT22;3367;48.714;8.994;2023-04-28T07:42:32;12.70;1.00
6662;DHT22;3367;48.714;8.994;2023-04-28T07:44:58;12.70;1.00
6662;DHT22;3367;48.714;8.994;2023-04-28T07:47:25;12.70;1.00
6662;DHT22;3367;48.714;8.994;2023-04-28T07:49:53;12.80;1.00
6662;DHT22;3367;48.714;8.994;2023-04-28T07:52:20;12.80;56.50
6662;DHT22;3367;48.714;8.994;2023-04-28T07:54:47;12.70;99.90
6662;DHT22;3367;48.714;8.994;2023-04-28T07:57:14;12.70;99.90
6662;DHT22;3367;48.714;8.994;2023-04-28T07:59:42;12.70;1.00
6662;DHT22;3367;48.714;8.994;2023-04-28T08:02:09;12.60;1.00
6662;DHT22;3367;48.714;8.994;2023-04-28T08:04:37;12.60;88.20
6662;DHT22;3367;48.714;8.994;2023-04-28T08:07:04;12.60;99.90
6662;DHT22;3367;48.714;8.994;2023-04-28T08:09:32;12.50;1.00
6662;DHT22;3367;48.714;8.994;2023-04-28T08:11:59;12.50;1.00
6662;DHT22;3367;48.714;8.994;2023-04-28T08:14:27;12.50;1.00
6662;DHT22;3367;48.714;8.994;2023-04-28T08:16:56;12.40;99.90
6662;DHT22;3367;48.714;8.994;2023-04-28T08:19:23;12.60;99.90
6662;DHT22;3367;48.714;8.994;2023-04-28T08:21:50;12.50;99.90
6662;DHT22;3367;48.714;8.994;2023-04-28T08:24:16;12.60;99.90
6662;DHT22;3367;48.714;8.994;2023-04-28T08:26:43;12.50;1.00
6662;DHT22;3367;48.714;8.994;2023-04-28T08:29:10;12.60;1.00
6662;DHT22;3367;48.714;8.994;2023-04-28T08:31:37;12.70;1.00
6662;DHT22;3367;48.714;8.994;2023-04-28T08:34:06;12.70;1.00
6662;DHT22;3367;48.714;8.994;2023-04-28T08:36:32;12.80;1.00
6662;DHT22;3367;48.714;8.994;2023-04-28T08:39:00;12.80;1.00
6662;DHT22;3367;48.714;8.994;2023-04-28T08:41:31;12.90;1.00
6662;DHT22;3367;48.714;8.994;2023-04-28T08:43:58;12.90;1.00
6662;DHT22;3367;48.714;8.994;2023-04-28T08:46:26;13.00;91.40
6662;DHT22;3367;48.714;8.994;2023-04-28T08:48:58;13.00;99.90
6662;DHT22;3367;48.714;8.994;2023-04-28T08:51:33;13.20;99.90
6662;DHT22;3367;48.714;8.994;2023-04-28T08:54:02;13.20;99.90
6662;DHT22;3367;48.714;8.994;2023-04-28T08:56:31;13.30;99.90
6662;DHT22;3367;48.714;8.994;2023-04-28T08:59:01;13.30;99.90
6662;DHT22;3367;48.714;8.994;2023-04-28T09:01:28;13.40;85.40
6662;DHT22;3367;48.714;8.994;2023-04-28T09:03:56;13.30;71.20
6662;DHT22;3367;48.714;8.994;2023-04-28T09:06:23;13.30;99.90
6662;DHT22;3367;48.714;8.994;2023-04-28T09:08:51;13.30;99.90
6662;DHT22;3367;48.714;8.994;2023-04-28T09:11:18;13.30;99.90
6662;DHT22;3367;48.714;8.994;2023-04-28T09:13:45;13.30;99.90
6662;DHT22;3367;48.714;8.994;2023-04-28T09:16:12;13.30;99.90
6662;DHT22;3367;48.714;8.994;2023-04-28T09:18:40;13.30;1.00
6662;DHT22;3367;48.714;8.994;2023-04-28T09:21:13;13.30;1.00
6662;DHT22;3367;48.714;8.994;2023-04-28T09:23:46;13.30;1.00
6662;DHT22;3367;48.714;8.994;2023-04-28T09:26:16;13.40;1.00
6662;DHT22;3367;48.714;8.994;2023-04-28T09:28:43;13.50;1.00
6662;DHT22;3367;48.714;8.994;2023-04-28T09:31:21;13.60;1.00
6662;DHT22;3367;48.714;8.994;2023-04-28T09:33:56;13.80;4.60
6662;DHT22;3367;48.714;8.994;2023-04-28T09:36:25;14.00;21.80
6662;DHT22;3367;48.714;8.994;2023-04-28T09:38:56;14.20;1.00
6662;DHT22;3367;48.714;8.994;2023-04-28T09:41:34;14.40;1.00
6662;DHT22;3367;48.714;8.994;2023-04-28T09:44:09;14.70;99.90
6662;DHT22;3367;48.714;8.994;2023-04-28T09:46:36;14.90;1.00
6662;DHT22;3367;48.714;8.994;2023-04-28T09:49:03;15.20;2.30
6662;DHT22;3367;48.714;8.994;2023-04-28T09:51:30;15.40;1.00
6662;DHT22;3367;48.714;8.994;2023-04-28T09:53:59;15.60;99.90
6662;DHT22;3367;48.714;8.994;2023-04-28T09:56:27;15.80;1.00
6662;DHT22;3367;48.714;8.994;2023-04-28T09:58:56;16.00;1.00
6662;DHT22;3367;48.714;8.994;2023-04-28T10:01:23;16.20;99.90
6662;DHT22;3367;48.714;8.994;2023-04-28T10:03:51;16.30;1.00
6662;DHT22;3367;48.714;8.994;2023-04-28T10:06:18;16.40;98.50
6662;DHT22;3367;48.714;8.994;2023-04-28T10:08:46;16.50;1.00
6662;DHT22;3367;48.714;8.994;2023-04-28T10:11:14;16.50;1.00
6662;DHT22;3367;48.714;8.994;2023-04-28T10:13:42;16.50;99.90
6662;DHT22;3367;48.714;8.994;2023-04-28T10:16:11;16.50;1.00
6662;DHT22;3367;48.714;8.994;2023-04-28T10:18:38;16.50;1.00
6662;DHT22;3367;48.714;8.994;2023-04-28T10:21:05;16.50;1.00
6662;DHT22;3367;48.714;8.994;2023-04-28T10:23:48;16.50;1.00
6662;DHT22;3367;48.714;8.994;2023-04-28T10:26:18;16.40;1.00
6662;DHT22;3367;48.714;8.994;2023-04-28T10:28:46;16.30;99.90
6662;DHT22;3367;48.714;8.994;2023-04-28T10:31:16;16.20;1.00
6662;DHT22;3367;48.714;8.994;2023-04-28T10:33:45;16.20;1.00
6662;DHT22;3367;48.714;8.994;2023-04-28T10:39:15;16.20;99.90
6662;DHT22;3367;48.714;8.994;2023-04-28T10:41:42;16.30;1.00
6662;DHT22;3367;48.714;8.994;2023-04-28T10:44:40;16.40;1.00
6662;DHT22;3367;48.714;8.994;2023-04-28T10:47:09;16.40;99.90
6662;DHT22;3367;48.714;8.994;2023-04-28T10:50:05;16.50;99.90
6662;DHT22;3367;48.714;8.994;2023-04-28T10:52:48;16.70;1.00
6662;DHT22;3367;48.714;8.994;2023-04-28T10:55:31;17.00;52.50
6662;DHT22;3367;48.714;8.994;2023-04-28T10:58:31;17.20;99.90
6662;DHT22;3367;48.714;8.994;2023-04-28T11:01:24;17.30;1.00
6662;DHT22;3367;48.714;8.994;2023-04-28T11:03:54;17.50;1.00
6662;DHT22;3367;48.714;8.994;2023-04-28T11:06:28;17.80;1.00
6662;DHT22;3367;48.714;8.994;2023-04-28T11:08:57;17.80;1.00
6662;DHT22;3367;48.714;8.994;2023-04-28T11:11:25;17.70;1.00
6662;DHT22;3367;48.714;8.994;2023-04-28T11:13:54;17.40;99.90
6662;DHT22;3367;48.714;8.994;2023-04-28T11:16:24;17.20;1.00
6662;DHT22;3367;48.714;8.994;2023-04-28T11:18:57;17.20;1.00
6662;DHT22;3367;48.714;8.994;2023-04-28T11:21:25;17.10;99.90
6662;DHT22;3367;48.714;8.994;2023-04-28T11:23:53;16.90;99.90
6662;DHT22;3367;48.714;8.994;2023-04-28T11:26:20;17.00;1.00
6662;DHT22;3367;48.714;8.994;2023-04-28T11:28:49;17.00;1.00
6662;DHT22;3367;48.714;8.994;2023-04-28T11:31:19;17.10;61.30
6662;DHT22;3367;48.714;8.994;2023-04-28T11:33:52;17.10;99.90
6662;DHT22;3367;48.714;8.994;2023-04-28T11:36:29;17.20;99.90
6662;DHT22;3367;48.714;8.994;2023-04-28T11:38:57;17.40;99.90
6662;DHT22;3367;48.714;8.994;2023-04-28T11:41:25;17.40;99.90
6662;DHT22;3367;48.714;8.994;2023-04-28T11:43:52;17.30;18.50
6662;DHT22;3367;48.714;8.994;2023-04-28T11:46:19;17.40;99.90
6662;DHT22;3367;48.714;8.994;2023-04-28T11:48:47;17.40;1.00
6662;DHT22;3367;48.714;8.994;2023-04-28T11:51:34;17.20;1.00
6662;DHT22;3367;48.714;8.994;2023-04-28T11:54:03;17.10;1.00
6662;DHT22;3367;48.714;8.994;2023-04-28T11:56:36;17.00;1.00
6662;DHT22;3367;48.714;8.994;2023-04-28T11:59:04;16.90;1.00
6662;DHT22;3367;48.714;8.994;2023-04-28T12:01:33;16.90;1.00
6662;DHT22;3367;48.714;8.994;2023-04-28T12:04:02;16.90;1.00
6662;DHT22;3367;48.714;8.994;2023-04-28T12:06:29;16.90;1.00
6662;DHT22;3367;48.714;8.994;2023-04-28T12:08:57;17.00;1.00
6662;DHT22;3367;48.714;8.994;2023-04-28T12:11:28;17.20;1.00
6662;DHT22;3367;48.714;8.994;2023-04-28T12:14:06;17.50;1.00
6662;DHT22;3367;48.714;8.994;2023-04-28T12:16:37;17.70;1.00
6662;DHT22;3367;48.714;8.994;2023-04-28T12:19:07;17.80;1.00
6662;DHT22;3367;48.714;8.994;2023-04-28T12:21:35;17.90;1.00
6662;DHT22;3367;48.714;8.994;2023-04-28T12:24:14;18.00;99.90
6662;DHT22;3367;48.714;8.994;2023-04-28T12:26:41;18.10;99.90
6662;DHT22;3367;48.714;8.994;2023-04-28T12:29:08;18.10;81.20
6662;DHT22;3367;48.714;8.994;2023-04-28T12:31:47;17.90;74.50
6662;DHT22;3367;48.714;8.994;2023-04-28T12:34:14;17.80;99.00
6662;DHT22;3367;48.714;8.994;2023-04-28T12:36:41;17.80;99.90
6662;DHT22;3367;48.714;8.994;2023-04-28T12:39:13;17.80;99.90
6662;DHT22;3367;48.714;8.994;2023-04-28T12:41:43;17.80;96.20
6662;DHT22;3367;48.714;8.994;2023-04-28T12:44:10;17.80;76.50
6662;DHT22;3367;48.714;8.994;2023-04-28T12:46:36;17.80;90.50
6662;DHT22;3367;48.714;8.994;2023-04-28T12:49:03;17.90;88.40
6662;DHT22;3367;48.714;8.994;2023-04-28T12:51:30;17.90;83.00
6662;DHT22;3367;48.714;8.994;2023-04-28T12:53:57;17.80;73.50
6662;DHT22;3367;48.714;8.994;2023-04-28T12:56:25;17.70;92.30
6662;DHT22;3367;48.714;8.994;2023-04-28T12:58:52;17.60;99.90
6662;DHT22;3367;48.714;8.994;2023-04-28T13:01:18;17.60;99.90
6662;DHT22;3367;48.714;8.994;2023-04-28T13:03:45;17.50;99.90
6662;DHT22;3367;48.714;8.994;2023-04-28T13:06:12;17.40;99.90
6662;DHT22;3367;48.714;8.994;2023-04-28T13:08:39;17.50;99.90
6662;DHT22;3367;48.714;8.994;2023-04-28T13:11:07;17.60;99.90
6662;DHT22;3367;48.714;8.994;2023-04-28T13:13:36;17.70;99.90
6662;DHT22;3367;48.714;8.994;2023-04-28T13:16:03;17.90;99.90
6662;DHT22;3367;48.714;8.994;2023-04-28T13:18:30;18.20;93.30
6662;DHT22;3367;48.714;8.994;2023-04-28T13:20:57;18.40;69.40
6662;DHT22;3367;48.714;8.994;2023-04-28T13:23:24;18.60;49.70
6662;DHT22;3367;48.714;8.994;2023-04-28T13:25:51;18.70;21.70
6662;DHT22;3367;48.714;8.994;2023-04-28T13:28:17;18.80;14.50
6662;DHT22;3367;48.714;8.994;2023-04-28T13:30:45;18.70;1.00
6662;DHT22;3367;48.714;8.994;2023-04-28T13:33:12;18.70;2.60
6662;DHT22;3367;48.714;8.994;2023-04-28T13:35:38;18.60;6.00
6662;DHT22;3367;48.714;8.994;2023-04-28T13:38:05;18.40;18.10
6662;DHT22;3367;48.714;8.994;2023-04-28T13:40:32;18.30;25.10
6662;DHT22;3367;48.714;8.994;2023-04-28T13:42:59;18.10;26.60
6662;DHT22;3367;48.714;8.994;2023-04-28T13:45:26;17.90;34.60
6662;DHT22;3367;48.714;8.994;2023-04-28T13:47:54;17.80;58.70
6662;DHT22;3367;48.714;8.994;2023-04-28T13:50:21;17.80;99.90
6662;DHT22;3367;48.714;8.994;2023-04-28T13:52:48;17.80;99.90
6662;DHT22;3367;48.714;8.994;2023-04-28T13:55:14;17.60;1.00
6662;DHT22;3367;48.714;8.994;2023-04-28T13:57:41;17.50;1.00
6662;DHT22;3367;48.714;8.994;2023-04-28T14:00:09;17.40;1.00
6662;DHT22;3367;48.714;8.994;2023-04-28T14:02:36;17.20;1.00
6662;DHT22;3367;48.714;8.994;2023-04-28T14:05:06;17.20;1.00
6662;DHT22;3367;48.714;8.994;2023-04-28T14:07:33;17.20;1.00
6662;DHT22;3367;48.714;8.994;2023-04-28T14:09:59;17.10;99.90
6662;DHT22;3367;48.714;8.994;2023-04-28T14:12:26;17.00;99.90
6662;DHT22;3367;48.714;8.994;2023-04-28T14:14:53;16.90;94.70
6662;DHT22;3367;48.714;8.994;2023-04-28T14:17:20;16.70;99.90
6662;DHT22;3367;48.714;8.994;2023-04-28T14:19:47;16.70;99.90
6662;DHT22;3367;48.714;8.994;2023-04-28T14:22:15;16.70;1.00
6662;DHT22;3367;48.714;8.994;2023-04-28T14:24:42;16.70;1.00
6662;DHT22;3367;48.714;8.994;2023-04-28T14:27:09;16.80;1.00
6662;DHT22;3367;48.714;8.994;2023-04-28T14:29:36;16.90;99.90
6662;DHT22;3367;48.714;8.994;2023-04-28T14:32:03;17.00;1.00
6662;DHT22;3367;48.714;8.994;2023-04-28T14:34:30;17.00;1.00
6662;DHT22;3367;48.714;8.994;2023-04-28T14:36:57;17.10;1.00
6662;DHT22;3367;48.714;8.994;2023-04-28T14:39:25;17.10;1.00
6662;DHT22;3367;48.714;8.994;2023-04-28T14:41:51;17.00;99.90
6662;DHT22;3367;48.714;8.994;2023-04-28T14:44:18;16.80;99.90
6662;DHT22;3367;48.714;8.994;2023-04-28T14:46:45;16.60;99.90
6662;DHT22;3367;48.714;8.994;2023-04-28T14:49:11;16.60;1.00
6662;DHT22;3367;48.714;8.994;2023-04-28T14:51:38;16.50;99.90
6662;DHT22;3367;48.714;8.994;2023-04-28T14:54:05;16.50;1.00
6662;DHT22;3367;48.714;8.994;2023-04-28T14:56:34;16.50;99.90
6662;DHT22;3367;48.714;8.994;2023-04-28T14:59:01;16.30;1.00
6662;DHT22;3367;48.714;8.994;2023-04-28T15:01:29;16.20;1.00
6662;DHT22;3367;48.714;8.994;2023-04-28T15:03:56;16.10;52.60
6662;DHT22;3367;48.714;8.994;2023-04-28T15:06:22;16.00;99.90
6662;DHT22;3367;48.714;8.994;2023-04-28T15:08:49;15.90;1.00
6662;DHT22;3367;48.714;8.994;2023-04-28T15:11:16;15.90;1.00
6662;DHT22;3367;48.714;8.994;2023-04-28T15:13:44;15.80;1.00
6662;DHT22;3367;48.714;8.994;2023-04-28T15:16:11;15.80;1.00
6662;DHT22;3367;48.714;8.994;2023-04-28T15:18:37;15.70;1.00
6662;DHT22;3367;48.714;8.994;2023-04-28T15:21:05;15.70;99.90
6662;DHT22;3367;48.714;8.994;2023-04-28T15:23:33;15.60;1.00
6662;DHT22;3367;48.714;8.994;2023-04-28T15:26:00;15.60;99.90
6662;DHT22;3367;48.714;8.994;2023-04-28T15:28:26;15.60;1.00
6662;DHT22;3367;48.714;8.994;2023-04-28T15:30:54;15.50;1.00
6662;DHT22;3367;48.714;8.994;2023-04-28T15:33:21;15.50;1.00
6662;DHT22;3367;48.714;8.994;2023-04-28T15:35:48;15.50;99.90
6662;DHT22;3367;48.714;8.994;2023-04-28T15:38:15;15.50;1.00
6662;DHT22;3367;48.714;8.994;2023-04-28T15:40:42;15.50;99.90
6662;DHT22;3367;48.714;8.994;2023-04-28T15:43:09;15.50;99.90
6662;DHT22;3367;48.714;8.994;2023-04-28T15:45:37;15.60;1.00
6662;DHT22;3367;48.714;8.994;2023-04-28T15:48:06;15.60;67.20
6662;DHT22;3367;48.714;8.994;2023-04-28T15:50:35;15.70;58.90
6662;DHT22;3367;48.714;8.994;2023-04-28T15:53:01;15.60;1.00
6662;DHT22;3367;48.714;8.994;2023-04-28T15:55:28;15.60;1.00
6662;DHT22;3367;48.714;8.994;2023-04-28T15:57:55;15.60;1.00
6662;DHT22;3367;48.714;8.994;2023-04-28T16:00:22;15.50;1.00
6662;DHT22;3367;48.714;8.994;2023-04-28T16:02:49;15.40;1.00
6662;DHT22;3367;48.714;8.994;2023-04-28T16:05:17;15.40;1.00
6662;DHT22;3367;48.714;8.994;2023-04-28T16:07:44;15.30;1.00
6662;DHT22;3367;48.714;8.994;2023-04-28T16:10:13;15.30;99.90
6662;DHT22;3367;48.714;8.994;2023-04-28T16:12:40;15.30;99.90
6662;DHT22;3367;48.714;8.994;2023-04-28T16:15:09;15.30;99.90